createdAt,value
2022-08-23T00:00:19.716Z,0.00
2022-08-23T00:01:19.736Z,0.00
2022-08-23T00:02:23.854Z,0.00
2022-08-23T00:03:19.841Z,0.00
2022-08-23T00:04:19.842Z,0.00
2022-08-23T00:05:19.792Z,0.00
2022-08-23T00:06:19.811Z,0.00
2022-08-23T00:07:19.824Z,0.00
2022-08-23T00:08:19.837Z,0.00
2022-08-23T00:09:19.853Z,0.00
2022-08-23T00:10:19.867Z,0.00
2022-08-23T00:11:19.885Z,0.00
2022-08-23T00:12:19.896Z,0.00
2022-08-23T00:13:19.913Z,0.00
2022-08-23T00:14:19.931Z,0.00
2022-08-23T00:15:20.048Z,0.00
2022-08-23T00:16:19.958Z,0.00
2022-08-23T00:17:34.508Z,0.00
2022-08-23T00:18:19.993Z,0.00
2022-08-23T00:19:20.003Z,0.00
2022-08-23T00:20:20.016Z,0.00
2022-08-23T00:21:20.030Z,0.00
2022-08-23T00:22:20.049Z,0.00
2022-08-23T00:23:20.063Z,0.00
2022-08-23T00:24:20.075Z,0.00
2022-08-23T00:25:20.094Z,0.00
2022-08-23T00:26:20.105Z,0.00
2022-08-23T00:27:20.127Z,0.00
2022-08-23T00:28:20.141Z,0.00
2022-08-23T00:29:20.169Z,0.00
2022-08-23T00:30:20.169Z,0.00
2022-08-23T00:31:20.189Z,0.00
2022-08-23T00:32:20.197Z,0.00
2022-08-23T00:33:20.213Z,0.00
2022-08-23T00:34:20.227Z,0.00
2022-08-23T00:35:26.441Z,0.00
2022-08-23T00:36:20.257Z,0.00
2022-08-23T00:37:20.272Z,0.00
2022-08-23T00:38:32.322Z,0.00
2022-08-23T00:39:20.302Z,0.00
2022-08-23T00:40:20.433Z,0.00
2022-08-23T00:41:20.335Z,0.00
2022-08-23T00:42:20.348Z,0.00
2022-08-23T00:43:20.371Z,0.00
2022-08-23T00:44:20.394Z,0.00
2022-08-23T00:45:20.392Z,0.00
2022-08-23T00:46:20.413Z,0.00
2022-08-23T00:47:20.427Z,0.00
2022-08-23T00:48:20.440Z,0.00
2022-08-23T00:49:20.449Z,0.00
2022-08-23T00:50:23.666Z,0.00
2022-08-23T00:51:20.482Z,0.00
2022-08-23T00:52:20.497Z,0.00
2022-08-23T00:53:20.512Z,0.00
2022-08-23T00:54:20.524Z,0.00
2022-08-23T00:55:20.542Z,0.00
2022-08-23T00:56:20.559Z,0.00
2022-08-23T00:57:20.569Z,0.00
2022-08-23T00:58:20.589Z,0.00
2022-08-23T00:59:20.604Z,0.00
2022-08-23T01:00:20.617Z,0.00
2022-08-23T01:01:20.696Z,0.00
2022-08-23T01:02:20.682Z,0.00
2022-08-23T01:03:20.727Z,0.00
2022-08-23T01:04:20.674Z,0.00
2022-08-23T01:05:20.688Z,0.00
2022-08-23T01:06:20.705Z,0.00
2022-08-23T01:07:20.722Z,0.00
2022-08-23T01:08:20.737Z,0.00
2022-08-23T01:09:20.758Z,0.00
2022-08-23T01:10:21.055Z,0.00
2022-08-23T01:11:20.779Z,0.00
2022-08-23T01:12:31.098Z,0.00
2022-08-23T01:13:20.808Z,0.00
2022-08-23T01:14:20.825Z,0.00
2022-08-23T01:15:20.836Z,0.00
2022-08-23T01:16:20.854Z,0.00
2022-08-23T01:17:20.869Z,0.00
2022-08-23T01:18:20.894Z,0.00
2022-08-23T01:19:20.893Z,0.00
2022-08-23T01:20:20.910Z,0.00
2022-08-23T01:21:20.931Z,0.00
2022-08-23T01:22:20.939Z,0.00
2022-08-23T01:23:20.955Z,0.00
2022-08-23T01:24:42.604Z,0.00
2022-08-23T01:25:20.982Z,0.00
2022-08-23T01:26:22.118Z,0.00
2022-08-23T01:27:21.013Z,0.00
2022-08-23T01:28:21.029Z,0.00
2022-08-23T01:29:21.047Z,0.00
2022-08-23T01:30:21.067Z,0.00
2022-08-23T01:31:21.098Z,0.00
2022-08-23T01:32:21.102Z,0.00
2022-08-23T01:33:21.109Z,0.00
2022-08-23T01:34:21.117Z,0.00
2022-08-23T01:36:21.142Z,0.00
2022-08-23T01:37:21.159Z,0.00
2022-08-23T01:38:21.175Z,0.00
2022-08-23T01:39:21.189Z,0.00
2022-08-23T01:40:21.336Z,0.00
2022-08-23T01:41:21.218Z,0.00
2022-08-23T01:42:21.235Z,0.00
2022-08-23T01:43:21.245Z,0.00
2022-08-23T01:44:21.258Z,0.00
2022-08-23T01:45:21.293Z,0.00
2022-08-23T01:46:21.290Z,0.00
2022-08-23T01:47:21.303Z,0.00
2022-08-23T01:48:21.322Z,0.00
2022-08-23T01:49:21.336Z,0.00
2022-08-23T01:50:21.350Z,0.00
2022-08-23T01:51:21.364Z,0.00
2022-08-23T01:52:21.382Z,0.00
2022-08-23T01:53:21.393Z,0.00
2022-08-23T01:54:21.408Z,0.00
2022-08-23T01:55:21.423Z,0.00
2022-08-23T01:56:38.328Z,0.00
2022-08-23T01:57:21.451Z,0.00
2022-08-23T01:58:21.464Z,0.00
2022-08-23T01:59:21.484Z,0.00
2022-08-23T02:00:21.497Z,0.00
2022-08-23T02:01:21.570Z,0.00
2022-08-23T02:02:21.527Z,0.00
2022-08-23T02:03:21.540Z,0.00
2022-08-23T02:04:21.553Z,0.00
2022-08-23T02:05:21.567Z,0.00
2022-08-23T02:06:21.585Z,0.00
2022-08-23T02:07:21.597Z,0.00
2022-08-23T02:08:21.610Z,0.00
2022-08-23T02:09:21.627Z,0.00
2022-08-23T02:10:21.639Z,0.00
2022-08-23T02:11:21.657Z,0.00
2022-08-23T02:12:21.672Z,0.00
2022-08-23T02:13:21.686Z,0.00
2022-08-23T02:14:21.697Z,0.00
2022-08-23T02:15:21.716Z,0.00
2022-08-23T02:16:21.734Z,0.00
2022-08-23T02:17:21.743Z,0.00
2022-08-23T02:18:21.760Z,0.00
2022-08-23T02:19:21.773Z,0.00
2022-08-23T02:20:21.787Z,0.00
2022-08-23T02:21:21.799Z,0.00
2022-08-23T02:22:21.820Z,0.00
2022-08-23T02:23:21.849Z,0.00
2022-08-23T02:24:21.852Z,0.00
2022-08-23T02:25:21.858Z,0.00
2022-08-23T02:26:21.876Z,0.00
2022-08-23T02:27:21.893Z,0.00
2022-08-23T02:28:21.904Z,0.00
2022-08-23T02:29:21.919Z,0.00
2022-08-23T02:30:21.938Z,0.00
2022-08-23T02:31:21.962Z,0.00
2022-08-23T02:32:21.965Z,0.00
2022-08-23T02:33:21.978Z,0.00
2022-08-23T02:34:21.995Z,0.00
2022-08-23T02:35:22.008Z,0.00
2022-08-23T02:37:22.036Z,0.00
2022-08-23T02:38:22.056Z,0.00
2022-08-23T02:39:22.066Z,0.00
2022-08-23T02:40:22.162Z,0.00
2022-08-23T02:41:22.092Z,0.00
2022-08-23T02:42:22.111Z,0.00
2022-08-23T02:43:22.136Z,0.00
2022-08-23T02:44:22.143Z,0.00
2022-08-23T02:45:22.154Z,0.00
2022-08-23T02:46:22.167Z,0.00
2022-08-23T02:47:22.183Z,0.00
2022-08-23T02:48:22.197Z,0.00
2022-08-23T02:49:22.211Z,0.00
2022-08-23T02:50:22.226Z,0.00
2022-08-23T02:51:22.243Z,0.00
2022-08-23T02:52:22.257Z,0.00
2022-08-23T02:53:22.274Z,0.00
2022-08-23T02:54:22.287Z,0.00
2022-08-23T02:55:22.296Z,0.00
2022-08-23T02:56:22.314Z,0.00
2022-08-23T02:57:22.327Z,0.00
2022-08-23T02:58:22.342Z,0.00
2022-08-23T02:59:22.358Z,0.00
2022-08-23T03:00:22.371Z,0.00
2022-08-23T03:01:22.390Z,0.00
2022-08-23T03:02:22.480Z,0.00
2022-08-23T03:03:22.691Z,0.00
2022-08-23T03:04:22.427Z,0.00
2022-08-23T03:05:22.441Z,0.00
2022-08-23T03:06:25.660Z,0.00
2022-08-23T03:07:22.472Z,0.00
2022-08-23T03:08:22.496Z,0.00
2022-08-23T03:09:22.501Z,0.00
2022-08-23T03:10:22.517Z,0.00
2022-08-23T03:11:22.540Z,0.00
2022-08-23T03:12:22.549Z,0.00
2022-08-23T03:13:22.560Z,0.00
2022-08-23T03:14:22.576Z,0.00
2022-08-23T03:15:22.594Z,0.00
2022-08-23T03:16:22.603Z,0.00
2022-08-23T03:17:22.624Z,0.00
2022-08-23T03:18:22.630Z,0.00
2022-08-23T03:19:22.646Z,0.00
2022-08-23T03:20:22.689Z,0.00
2022-08-23T03:21:22.681Z,0.00
2022-08-23T03:22:22.688Z,0.00
2022-08-23T03:23:22.708Z,0.00
2022-08-23T03:24:22.719Z,0.00
2022-08-23T03:25:22.747Z,0.00
2022-08-23T03:26:22.848Z,0.00
2022-08-23T03:27:22.766Z,0.00
2022-08-23T03:28:22.773Z,0.00
2022-08-23T03:29:22.793Z,0.00
2022-08-23T03:30:22.807Z,0.00
2022-08-23T03:31:22.819Z,0.00
2022-08-23T03:32:22.836Z,0.00
2022-08-23T03:33:22.847Z,0.00
2022-08-23T03:34:22.863Z,0.00
2022-08-23T03:35:22.882Z,0.00
2022-08-23T03:36:28.055Z,0.00
2022-08-23T03:37:22.909Z,0.00
2022-08-23T03:38:22.919Z,0.00
2022-08-23T03:39:22.937Z,0.00
2022-08-23T03:40:23.018Z,0.00
2022-08-23T03:41:22.966Z,0.00
2022-08-23T03:42:24.029Z,0.00
2022-08-23T03:43:22.995Z,0.00
2022-08-23T03:44:23.008Z,0.00
2022-08-23T03:45:23.020Z,0.00
2022-08-23T03:46:23.073Z,0.00
2022-08-23T03:47:23.828Z,0.00
2022-08-23T03:48:23.063Z,0.00
2022-08-23T03:49:23.079Z,0.00
2022-08-23T03:50:23.092Z,0.00
2022-08-23T03:51:23.103Z,0.00
2022-08-23T03:52:23.123Z,0.00
2022-08-23T03:53:23.134Z,0.00
2022-08-23T03:54:23.147Z,0.00
2022-08-23T03:55:23.168Z,0.00
2022-08-23T03:56:23.178Z,0.00
2022-08-23T03:57:23.191Z,0.00
2022-08-23T03:58:23.205Z,0.00
2022-08-23T03:59:23.222Z,0.00
2022-08-23T04:00:23.239Z,0.00
2022-08-23T04:01:27.902Z,0.00
2022-08-23T04:02:23.261Z,0.00
2022-08-23T04:03:23.255Z,0.00
2022-08-23T04:04:23.393Z,0.00
2022-08-23T04:05:23.302Z,0.00
2022-08-23T04:06:23.322Z,0.00
2022-08-23T04:07:23.337Z,0.00
2022-08-23T04:08:31.915Z,0.00
2022-08-23T04:09:23.359Z,0.00
2022-08-23T04:10:23.371Z,0.00
2022-08-23T04:11:23.392Z,0.00
2022-08-23T04:12:23.402Z,0.00
2022-08-23T04:13:23.418Z,0.00
2022-08-23T04:14:23.431Z,0.00
2022-08-23T04:15:23.445Z,0.00
2022-08-23T04:16:23.468Z,0.00
2022-08-23T04:17:23.473Z,0.00
2022-08-23T04:18:23.485Z,0.00
2022-08-23T04:19:23.498Z,0.00
2022-08-23T04:20:23.523Z,0.00
2022-08-23T04:21:23.533Z,0.00
2022-08-23T04:22:23.544Z,0.00
2022-08-23T04:23:23.578Z,0.00
2022-08-23T04:24:23.571Z,0.00
2022-08-23T04:25:34.944Z,0.00
2022-08-23T04:26:26.152Z,0.00
2022-08-23T04:27:23.617Z,0.00
2022-08-23T04:28:23.628Z,0.00
2022-08-23T04:29:34.431Z,0.00
2022-08-23T04:30:23.678Z,0.00
2022-08-23T04:31:23.674Z,0.00
2022-08-23T04:32:28.161Z,0.00
2022-08-23T04:33:23.696Z,0.00
2022-08-23T04:34:23.711Z,0.00
2022-08-23T04:35:23.725Z,0.00
2022-08-23T04:36:23.746Z,0.00
2022-08-23T04:37:23.757Z,0.00
2022-08-23T04:38:24.941Z,0.00
2022-08-23T04:39:23.785Z,0.00
2022-08-23T04:40:23.961Z,0.00
2022-08-23T04:41:23.825Z,0.00
2022-08-23T04:42:23.827Z,0.00
2022-08-23T04:43:23.845Z,0.00
2022-08-23T04:44:23.860Z,0.00
2022-08-23T04:45:23.873Z,0.00
2022-08-23T04:46:23.882Z,0.00
2022-08-23T04:47:23.900Z,0.00
2022-08-23T04:48:23.911Z,0.00
2022-08-23T04:49:24.589Z,0.00
2022-08-23T04:50:23.944Z,0.00
2022-08-23T04:51:23.954Z,0.00
2022-08-23T04:52:23.971Z,0.00
2022-08-23T04:53:23.985Z,0.00
2022-08-23T04:54:23.995Z,0.00
2022-08-23T04:55:24.013Z,0.00
2022-08-23T04:56:24.022Z,0.00
2022-08-23T04:57:24.036Z,0.00
2022-08-23T04:58:24.053Z,0.00
2022-08-23T04:59:24.064Z,0.00
2022-08-23T05:00:27.149Z,0.00
2022-08-23T05:01:24.151Z,0.00
2022-08-23T05:02:24.111Z,0.00
2022-08-23T05:03:24.127Z,0.00
2022-08-23T05:04:24.143Z,0.00
2022-08-23T05:05:24.154Z,0.00
2022-08-23T05:06:24.172Z,0.00
2022-08-23T05:07:41.490Z,0.00
2022-08-23T05:08:24.197Z,0.00
2022-08-23T05:09:24.208Z,0.00
2022-08-23T05:10:24.222Z,0.00
2022-08-23T05:11:24.240Z,0.00
2022-08-23T05:12:24.254Z,0.00
2022-08-23T05:13:24.263Z,0.00
2022-08-23T05:14:24.285Z,0.00
2022-08-23T05:15:24.296Z,0.00
2022-08-23T05:16:24.310Z,0.00
2022-08-23T05:17:24.322Z,0.00
2022-08-23T05:18:24.338Z,0.00
2022-08-23T05:19:24.348Z,0.00
2022-08-23T05:20:24.364Z,0.00
2022-08-23T05:21:24.379Z,0.00
2022-08-23T05:22:24.392Z,0.00
2022-08-23T05:23:31.726Z,0.00
2022-08-23T05:24:24.421Z,0.00
2022-08-23T05:25:24.434Z,0.00
2022-08-23T05:26:24.449Z,0.00
2022-08-23T05:27:24.463Z,0.00
2022-08-23T05:28:24.481Z,0.00
2022-08-23T05:29:24.489Z,0.00
2022-08-23T05:30:24.504Z,0.00
2022-08-23T05:31:24.524Z,0.00
2022-08-23T05:32:24.547Z,0.00
2022-08-23T05:33:24.550Z,0.00
2022-08-23T05:34:24.564Z,0.00
2022-08-23T05:35:24.579Z,0.00
2022-08-23T05:36:24.590Z,0.00
2022-08-23T05:37:24.609Z,0.00
2022-08-23T05:38:24.619Z,0.00
2022-08-23T05:39:32.751Z,0.00
2022-08-23T05:40:24.746Z,0.00
2022-08-23T05:41:33.373Z,0.00
2022-08-23T05:42:24.680Z,0.00
2022-08-23T05:43:24.689Z,0.00
2022-08-23T05:44:24.719Z,0.00
2022-08-23T05:45:24.746Z,0.00
2022-08-23T05:46:28.442Z,0.00
2022-08-23T05:47:25.080Z,0.00
2022-08-23T05:48:24.760Z,0.00
2022-08-23T05:49:24.774Z,0.00
2022-08-23T05:50:24.792Z,0.00
2022-08-23T05:51:24.805Z,0.00
2022-08-23T05:52:24.821Z,0.00
2022-08-23T05:53:24.835Z,0.00
2022-08-23T05:54:24.844Z,0.00
2022-08-23T05:55:27.713Z,0.00
2022-08-23T05:56:24.878Z,0.00
2022-08-23T05:57:24.889Z,0.00
2022-08-23T05:58:24.903Z,0.00
2022-08-23T05:59:24.915Z,0.00
2022-08-23T06:00:37.218Z,0.00
2022-08-23T06:01:24.972Z,0.00
2022-08-23T06:02:24.962Z,0.00
2022-08-23T06:03:24.972Z,0.00
2022-08-23T06:04:24.991Z,0.00
2022-08-23T06:05:24.997Z,0.00
2022-08-23T06:06:34.917Z,0.00
2022-08-23T06:07:25.028Z,0.00
2022-08-23T06:08:25.043Z,5.63
2022-08-23T06:09:25.058Z,5.63
2022-08-23T06:10:25.071Z,5.63
2022-08-23T06:11:25.097Z,5.63
2022-08-23T06:12:25.098Z,5.63
2022-08-23T06:13:25.114Z,5.63
2022-08-23T06:14:25.252Z,5.63
2022-08-23T06:15:25.140Z,5.63
2022-08-23T06:16:25.157Z,5.63
2022-08-23T06:17:25.171Z,5.63
2022-08-23T06:18:25.185Z,5.63
2022-08-23T06:19:25.202Z,5.63
2022-08-23T06:20:25.293Z,5.63
2022-08-23T06:21:25.230Z,5.63
2022-08-23T06:22:25.243Z,5.63
2022-08-23T06:23:25.261Z,5.63
2022-08-23T06:24:25.268Z,5.63
2022-08-23T06:25:25.294Z,5.63
2022-08-23T06:26:25.298Z,5.63
2022-08-23T06:27:25.313Z,5.63
2022-08-23T06:28:25.780Z,5.63
2022-08-23T06:29:25.397Z,5.63
2022-08-23T06:30:25.357Z,5.63
2022-08-23T06:31:25.423Z,5.63
2022-08-23T06:32:25.474Z,5.63
2022-08-23T06:33:25.424Z,5.63
2022-08-23T06:34:25.409Z,5.63
2022-08-23T06:35:33.297Z,5.63
2022-08-23T06:36:25.462Z,5.63
2022-08-23T06:37:25.454Z,5.63
2022-08-23T06:38:25.471Z,5.63
2022-08-23T06:39:25.481Z,5.63
2022-08-23T06:40:25.591Z,5.63
2022-08-23T06:41:25.512Z,5.63
2022-08-23T06:42:40.465Z,5.63
2022-08-23T06:43:25.543Z,5.63
2022-08-23T06:44:25.557Z,5.63
2022-08-23T06:45:33.758Z,5.63
2022-08-23T06:46:25.708Z,5.63
2022-08-23T06:47:25.601Z,5.63
2022-08-23T06:48:25.617Z,5.63
2022-08-23T06:49:25.625Z,5.63
2022-08-23T06:50:25.674Z,5.63
2022-08-23T06:51:26.578Z,5.63
2022-08-23T06:52:25.669Z,5.63
2022-08-23T06:53:25.682Z,5.63
2022-08-23T06:54:26.395Z,5.63
2022-08-23T06:55:25.714Z,5.63
2022-08-23T06:56:25.735Z,5.63
2022-08-23T06:57:25.742Z,5.63
2022-08-23T06:58:25.757Z,5.63
2022-08-23T06:59:25.772Z,5.63
2022-08-23T07:00:25.841Z,5.63
2022-08-23T07:01:44.599Z,5.63
2022-08-23T07:02:25.971Z,5.63
2022-08-23T07:03:25.827Z,11.25
2022-08-23T07:04:25.845Z,11.25
2022-08-23T07:05:25.856Z,11.25
2022-08-23T07:06:25.869Z,11.25
2022-08-23T07:07:39.595Z,11.25
2022-08-23T07:08:25.901Z,11.25
2022-08-23T07:09:25.918Z,11.25
2022-08-23T07:10:25.934Z,11.25
2022-08-23T07:11:25.950Z,11.25
2022-08-23T07:12:25.961Z,11.25
2022-08-23T07:13:25.976Z,11.25
2022-08-23T07:14:25.986Z,11.25
2022-08-23T07:15:26.003Z,11.25
2022-08-23T07:16:26.107Z,11.25
2022-08-23T07:17:26.035Z,11.25
2022-08-23T07:18:26.041Z,11.25
2022-08-23T07:19:29.243Z,11.25
2022-08-23T07:20:26.086Z,11.25
2022-08-23T07:21:26.088Z,11.25
2022-08-23T07:22:26.101Z,11.25
2022-08-23T07:23:26.118Z,11.25
2022-08-23T07:24:30.652Z,11.25
2022-08-23T07:25:26.146Z,11.25
2022-08-23T07:26:26.162Z,11.25
2022-08-23T07:27:26.178Z,11.25
2022-08-23T07:28:26.189Z,11.25
2022-08-23T07:29:26.205Z,11.25
2022-08-23T07:30:26.222Z,11.25
2022-08-23T07:31:26.257Z,11.25
2022-08-23T07:32:26.252Z,11.25
2022-08-23T07:33:26.263Z,11.25
2022-08-23T07:34:26.296Z,11.25
2022-08-23T07:35:26.306Z,11.25
2022-08-23T07:36:26.308Z,11.25
2022-08-23T07:37:26.322Z,11.25
2022-08-23T07:38:29.981Z,11.25
2022-08-23T07:39:26.359Z,11.25
2022-08-23T07:40:27.602Z,11.25
2022-08-23T07:41:26.380Z,11.25
2022-08-23T07:42:26.396Z,11.25
2022-08-23T07:43:26.412Z,11.25
2022-08-23T07:44:27.266Z,11.25
2022-08-23T07:45:26.437Z,11.25
2022-08-23T07:46:26.512Z,11.25
2022-08-23T07:47:26.468Z,11.25
2022-08-23T07:48:50.359Z,11.25
2022-08-23T07:49:29.323Z,11.25
2022-08-23T07:50:30.267Z,11.25
2022-08-23T07:51:26.527Z,11.25
2022-08-23T07:52:26.544Z,11.25
2022-08-23T07:53:37.726Z,11.25
2022-08-23T07:54:26.571Z,11.25
2022-08-23T07:55:26.583Z,11.25
2022-08-23T07:56:26.608Z,11.25
2022-08-23T07:57:26.666Z,11.25
2022-08-23T07:58:26.635Z,11.25
2022-08-23T07:59:27.992Z,11.25
2022-08-23T08:00:26.662Z,11.25
2022-08-23T08:01:26.729Z,11.25
2022-08-23T08:02:26.767Z,11.25
2022-08-23T08:03:26.709Z,11.25
2022-08-23T08:04:26.723Z,11.25
2022-08-23T08:05:26.739Z,11.25
2022-08-23T08:06:26.753Z,11.25
2022-08-23T08:07:26.768Z,11.25
2022-08-23T08:08:26.782Z,11.25
2022-08-23T08:09:26.797Z,11.25
2022-08-23T08:10:26.819Z,11.25
2022-08-23T08:11:29.675Z,11.25
2022-08-23T08:12:26.844Z,11.25
2022-08-23T08:13:26.856Z,11.25
2022-08-23T08:14:26.875Z,11.25
2022-08-23T08:15:27.330Z,11.25
2022-08-23T08:16:26.968Z,11.25
2022-08-23T08:17:27.678Z,11.25
2022-08-23T08:18:26.931Z,11.25
2022-08-23T08:19:26.948Z,11.25
2022-08-23T08:20:26.961Z,11.25
2022-08-23T08:21:26.976Z,11.25
2022-08-23T08:22:26.994Z,11.25
2022-08-23T08:23:27.011Z,11.25
2022-08-23T08:24:27.023Z,11.25
2022-08-23T08:25:27.038Z,11.25
2022-08-23T08:26:27.058Z,11.25
2022-08-23T08:27:27.119Z,11.25
2022-08-23T08:28:27.090Z,16.88
2022-08-23T08:29:27.099Z,16.88
2022-08-23T08:30:27.126Z,16.88
2022-08-23T08:31:27.443Z,16.88
2022-08-23T08:32:27.149Z,16.88
2022-08-23T08:33:30.731Z,16.88
2022-08-23T08:34:27.177Z,16.88
2022-08-23T08:35:27.191Z,16.88
2022-08-23T08:36:27.208Z,16.88
2022-08-23T08:37:27.358Z,16.88
2022-08-23T08:38:28.877Z,16.88
2022-08-23T08:39:27.255Z,16.88
2022-08-23T08:40:27.296Z,16.88
2022-08-23T08:41:27.291Z,16.88
2022-08-23T08:42:27.301Z,16.88
2022-08-23T08:43:27.318Z,16.88
2022-08-23T08:44:27.439Z,16.88
2022-08-23T08:45:27.356Z,16.88
2022-08-23T08:46:27.394Z,16.88
2022-08-23T08:47:27.794Z,16.88
2022-08-23T08:48:27.399Z,16.88
2022-08-23T08:49:27.417Z,16.88
2022-08-23T08:50:27.434Z,16.88
2022-08-23T08:51:27.446Z,16.88
2022-08-23T08:52:32.015Z,16.88
2022-08-23T08:53:27.482Z,16.88
2022-08-23T08:54:27.500Z,16.88
2022-08-23T08:55:27.513Z,16.88
2022-08-23T08:56:32.448Z,16.88
2022-08-23T08:57:27.923Z,16.88
2022-08-23T08:58:27.559Z,16.88
2022-08-23T08:59:27.577Z,16.88
2022-08-23T09:00:27.600Z,16.88
2022-08-23T09:01:27.651Z,16.88
2022-08-23T09:02:32.402Z,16.88
2022-08-23T09:03:27.721Z,16.88
2022-08-23T09:04:27.662Z,16.88
2022-08-23T09:05:27.689Z,16.88
2022-08-23T09:06:27.698Z,16.88
2022-08-23T09:07:31.136Z,16.88
2022-08-23T09:08:27.730Z,16.88
2022-08-23T09:09:27.744Z,16.88
2022-08-23T09:10:27.757Z,16.88
2022-08-23T09:11:27.779Z,16.88
2022-08-23T09:12:27.792Z,16.88
2022-08-23T09:13:27.811Z,16.88
2022-08-23T09:14:27.826Z,16.88
2022-08-23T09:15:27.843Z,16.88
2022-08-23T09:16:28.775Z,16.88
2022-08-23T09:17:27.874Z,16.88
2022-08-23T09:18:27.899Z,16.88
2022-08-23T09:19:27.914Z,22.50
2022-08-23T09:20:32.702Z,22.50
2022-08-23T09:21:28.528Z,22.50
2022-08-23T09:22:27.963Z,22.50
2022-08-23T09:23:27.979Z,22.50
2022-08-23T09:24:27.999Z,22.50
2022-08-23T09:25:28.016Z,22.50
2022-08-23T09:26:28.035Z,22.50
2022-08-23T09:27:28.056Z,22.50
2022-08-23T09:28:28.070Z,22.50
2022-08-23T09:29:28.079Z,22.50
2022-08-23T09:30:28.099Z,22.50
2022-08-23T09:31:28.142Z,22.50
2022-08-23T09:32:28.140Z,22.50
2022-08-23T09:33:28.154Z,22.50
2022-08-23T09:34:28.224Z,22.50
2022-08-23T09:35:28.193Z,22.50
2022-08-23T09:36:28.205Z,22.50
2022-08-23T09:37:28.224Z,22.50
2022-08-23T09:38:28.244Z,22.50
2022-08-23T09:39:30.644Z,22.50
2022-08-23T09:40:28.278Z,22.50
2022-08-23T09:41:28.298Z,22.50
2022-08-23T09:42:28.312Z,22.50
2022-08-23T09:43:28.326Z,22.50
2022-08-23T09:44:28.361Z,28.13
2022-08-23T09:45:33.147Z,28.13
2022-08-23T09:46:28.461Z,28.13
2022-08-23T09:47:28.402Z,28.13
2022-08-23T09:48:31.156Z,28.13
2022-08-23T09:49:28.437Z,28.13
2022-08-23T09:50:28.448Z,28.13
2022-08-23T09:51:28.467Z,28.13
2022-08-23T09:52:28.485Z,28.13
2022-08-23T09:53:28.502Z,28.13
2022-08-23T09:54:28.523Z,28.13
2022-08-23T09:55:28.538Z,28.13
2022-08-23T09:56:28.558Z,28.13
2022-08-23T09:57:28.572Z,28.13
2022-08-23T09:58:28.588Z,28.13
2022-08-23T09:59:28.607Z,28.13
2022-08-23T10:00:28.627Z,28.13
2022-08-23T10:01:28.755Z,28.13
2022-08-23T10:02:28.672Z,28.13
2022-08-23T10:03:28.681Z,28.13
2022-08-23T10:04:28.739Z,28.13
2022-08-23T10:05:28.717Z,28.13
2022-08-23T10:06:31.044Z,33.75
2022-08-23T10:07:28.757Z,33.75
2022-08-23T10:08:28.781Z,33.75
2022-08-23T10:09:28.794Z,33.75
2022-08-23T10:10:28.812Z,33.75
2022-08-23T10:11:28.821Z,33.75
2022-08-23T10:12:28.846Z,33.75
2022-08-23T10:13:28.863Z,33.75
2022-08-23T10:14:30.714Z,33.75
2022-08-23T10:15:33.005Z,33.75
2022-08-23T10:16:29.007Z,33.75
2022-08-23T10:17:28.935Z,33.75
2022-08-23T10:18:28.951Z,33.75
2022-08-23T10:19:28.969Z,33.75
2022-08-23T10:20:29.089Z,33.75
2022-08-23T10:21:29.009Z,33.75
2022-08-23T10:22:29.024Z,33.75
2022-08-23T10:23:29.044Z,33.75
2022-08-23T10:24:29.068Z,33.75
2022-08-23T10:25:29.080Z,33.75
2022-08-23T10:26:29.120Z,33.75
2022-08-23T10:27:29.112Z,33.75
2022-08-23T10:28:29.134Z,33.75
2022-08-23T10:29:29.154Z,33.75
2022-08-23T10:30:29.173Z,33.75
2022-08-23T10:31:29.253Z,33.75
2022-08-23T10:32:29.210Z,33.75
2022-08-23T10:33:29.230Z,33.75
2022-08-23T10:34:30.011Z,33.75
2022-08-23T10:35:29.265Z,33.75
2022-08-23T10:36:29.281Z,33.75
2022-08-23T10:37:29.298Z,33.75
2022-08-23T10:38:29.321Z,33.75
2022-08-23T10:39:29.437Z,33.75
2022-08-23T10:40:29.430Z,33.75
2022-08-23T10:41:29.371Z,33.75
2022-08-23T10:42:29.393Z,33.75
2022-08-23T10:43:29.407Z,33.75
2022-08-23T10:44:29.428Z,33.75
2022-08-23T10:45:29.452Z,33.75
2022-08-23T10:46:29.557Z,33.75
2022-08-23T10:47:29.484Z,33.75
2022-08-23T10:48:29.498Z,33.75
2022-08-23T10:49:29.518Z,39.38
2022-08-23T10:50:29.542Z,33.75
2022-08-23T10:51:31.657Z,45.00
2022-08-23T10:52:29.578Z,45.00
2022-08-23T10:53:29.597Z,39.38
2022-08-23T10:54:29.621Z,39.38
2022-08-23T10:55:29.628Z,45.00
2022-08-23T10:56:29.652Z,39.38
2022-08-23T10:57:29.668Z,39.38
2022-08-23T10:58:30.859Z,39.38
2022-08-23T10:59:29.709Z,39.38
2022-08-23T11:00:29.732Z,39.38
2022-08-23T11:01:29.825Z,39.38
2022-08-23T11:02:29.853Z,39.38
2022-08-23T11:03:29.787Z,39.38
2022-08-23T11:04:29.807Z,39.38
2022-08-23T11:05:29.821Z,39.38
2022-08-23T11:06:29.841Z,39.38
2022-08-23T11:07:29.863Z,39.38
2022-08-23T11:08:29.885Z,39.38
2022-08-23T11:09:29.906Z,39.38
2022-08-23T11:10:29.924Z,39.38
2022-08-23T11:11:29.948Z,39.38
2022-08-23T11:12:29.962Z,39.38
2022-08-23T11:13:29.985Z,39.38
2022-08-23T11:14:30.007Z,39.38
2022-08-23T11:15:30.099Z,39.38
2022-08-23T11:16:30.041Z,39.38
2022-08-23T11:17:30.062Z,39.38
2022-08-23T11:18:33.127Z,39.38
2022-08-23T11:19:30.102Z,39.38
2022-08-23T11:20:30.125Z,39.38
2022-08-23T11:21:30.142Z,39.38
2022-08-23T11:22:30.160Z,39.38
2022-08-23T11:23:30.193Z,39.38
2022-08-23T11:24:30.204Z,39.38
2022-08-23T11:25:30.225Z,39.38
2022-08-23T11:26:30.238Z,39.38
2022-08-23T11:27:30.262Z,39.38
2022-08-23T11:28:30.569Z,39.38
2022-08-23T11:29:30.305Z,39.38
2022-08-23T11:30:30.324Z,39.38
2022-08-23T11:31:30.342Z,39.38
2022-08-23T11:32:30.373Z,39.38
2022-08-23T11:33:30.382Z,45.00
2022-08-23T11:34:30.405Z,45.00
2022-08-23T11:35:30.422Z,45.00
2022-08-23T11:36:30.446Z,45.00
2022-08-23T11:37:30.466Z,45.00
2022-08-23T11:38:30.484Z,45.00
2022-08-23T11:39:30.509Z,45.00
2022-08-23T11:40:30.595Z,45.00
2022-08-23T11:41:30.548Z,45.00
2022-08-23T11:42:30.570Z,45.00
2022-08-23T11:43:30.604Z,45.00
2022-08-23T11:44:30.610Z,45.00
2022-08-23T11:45:30.626Z,45.00
2022-08-23T11:46:30.705Z,45.00
2022-08-23T11:47:30.771Z,45.00
2022-08-23T11:48:30.690Z,45.00
2022-08-23T11:49:30.714Z,45.00
2022-08-23T11:50:30.733Z,45.00
2022-08-23T11:51:30.755Z,45.00
2022-08-23T11:52:30.776Z,45.00
2022-08-23T11:53:30.820Z,45.00
2022-08-23T11:54:30.816Z,45.00
2022-08-23T11:55:30.837Z,45.00
2022-08-23T11:56:30.854Z,45.00
2022-08-23T11:57:30.879Z,45.00
2022-08-23T11:58:30.899Z,45.00
2022-08-23T11:59:31.468Z,45.00
2022-08-23T12:00:30.939Z,45.00
2022-08-23T12:01:30.964Z,45.00
2022-08-23T12:02:31.156Z,45.00
2022-08-23T12:03:31.087Z,45.00
2022-08-23T12:04:31.021Z,45.00
2022-08-23T12:05:31.043Z,45.00
2022-08-23T12:06:31.060Z,45.00
2022-08-23T12:07:31.084Z,45.00
2022-08-23T12:08:31.111Z,45.00
2022-08-23T12:09:31.129Z,45.00
2022-08-23T12:10:31.149Z,45.00
2022-08-23T12:11:31.172Z,45.00
2022-08-23T12:12:34.836Z,45.00
2022-08-23T12:13:31.210Z,45.00
2022-08-23T12:14:31.232Z,45.00
2022-08-23T12:15:31.275Z,45.00
2022-08-23T12:16:31.361Z,45.00
2022-08-23T12:17:33.968Z,45.00
2022-08-23T12:18:31.311Z,45.00
2022-08-23T12:19:31.332Z,45.00
2022-08-23T12:20:31.356Z,45.00
2022-08-23T12:21:31.375Z,45.00
2022-08-23T12:22:31.394Z,45.00
2022-08-23T12:23:31.419Z,45.00
2022-08-23T12:24:32.317Z,45.00
2022-08-23T12:25:31.461Z,45.00
2022-08-23T12:26:31.487Z,45.00
2022-08-23T12:27:31.498Z,45.00
2022-08-23T12:28:31.537Z,45.00
2022-08-23T12:29:31.542Z,45.00
2022-08-23T12:30:31.563Z,45.00
2022-08-23T12:31:31.687Z,45.00
2022-08-23T12:32:31.605Z,45.00
2022-08-23T12:33:31.625Z,45.00
2022-08-23T12:34:31.643Z,45.00
2022-08-23T12:35:31.669Z,45.00
2022-08-23T12:36:31.688Z,45.00
2022-08-23T12:37:31.711Z,45.00
2022-08-23T12:38:31.731Z,45.00
2022-08-23T12:39:31.752Z,39.38
2022-08-23T12:40:31.874Z,45.00
2022-08-23T12:41:31.796Z,45.00
2022-08-23T12:42:31.816Z,45.00
2022-08-23T12:43:31.838Z,45.00
2022-08-23T12:44:34.051Z,45.00
2022-08-23T12:45:31.885Z,45.00
2022-08-23T12:46:31.983Z,45.00
2022-08-23T12:47:31.922Z,45.00
2022-08-23T12:48:31.959Z,45.00
2022-08-23T12:49:31.969Z,45.00
2022-08-23T12:50:33.018Z,45.00
2022-08-23T12:51:32.005Z,45.00
2022-08-23T12:52:32.031Z,45.00
2022-08-23T12:53:32.054Z,45.00
2022-08-23T12:54:32.072Z,45.00
2022-08-23T12:55:32.094Z,45.00
2022-08-23T12:56:32.596Z,45.00
2022-08-23T12:57:32.134Z,45.00
2022-08-23T12:58:33.669Z,45.00
2022-08-23T12:59:32.180Z,45.00
2022-08-23T13:00:32.204Z,45.00
2022-08-23T13:01:32.281Z,45.00
2022-08-23T13:02:32.380Z,45.00
2022-08-23T13:03:32.262Z,45.00
2022-08-23T13:04:32.291Z,45.00
2022-08-23T13:05:32.311Z,45.00
2022-08-23T13:06:32.329Z,45.00
2022-08-23T13:07:32.451Z,45.00
2022-08-23T13:08:34.287Z,50.63